createdAt,value
2018-01-08T00:00:53.578Z,0
2018-01-08T00:01:53.332Z,0
2018-01-08T00:02:53.661Z,0
2018-01-08T00:03:53.125Z,0
2018-01-08T00:04:53.104Z,0
2018-01-08T00:05:53.647Z,0
2018-01-08T00:06:53.658Z,0
2018-01-08T00:07:53.178Z,0
2018-01-08T00:08:53.704Z,0
2018-01-08T00:09:53.701Z,0
2018-01-08T00:10:53.229Z,0
2018-01-08T00:11:53.755Z,0
2018-01-08T00:12:53.738Z,0
2018-01-08T00:13:53.814Z,0
2018-01-08T00:14:53.809Z,0
2018-01-08T00:15:53.807Z,0
2018-01-08T00:16:53.822Z,0
2018-01-08T00:17:53.631Z,0
2018-01-08T00:18:53.357Z,0
2018-01-08T00:19:53.362Z,0
2018-01-08T00:20:53.621Z,0
2018-01-08T00:21:53.387Z,0
2018-01-08T00:22:53.409Z,0
2018-01-08T00:23:53.430Z,0
2018-01-08T00:24:53.692Z,0
2018-01-08T00:25:53.709Z,0
2018-01-08T00:26:53.731Z,0
2018-01-08T00:27:53.984Z,0
2018-01-08T00:28:53.756Z,0
2018-01-08T00:29:53.771Z,0
2018-01-08T00:30:53.788Z,0
2018-01-08T00:31:54.063Z,0
2018-01-08T00:32:54.094Z,0
2018-01-08T00:33:53.596Z,0
2018-01-08T00:34:53.906Z,0
2018-01-08T00:35:54.140Z,0
2018-01-08T00:36:53.641Z,0
2018-01-08T00:37:54.159Z,0
2018-01-08T00:38:53.920Z,0
2018-01-08T00:39:53.940Z,0
2018-01-08T00:40:54.213Z,0
2018-01-08T00:41:53.978Z,0
2018-01-08T00:42:53.793Z,0
2018-01-08T00:43:54.266Z,0
2018-01-08T00:44:53.776Z,0
2018-01-08T00:45:54.293Z,0
2018-01-08T00:46:53.815Z,0
2018-01-08T00:47:54.081Z,0
2018-01-08T00:48:53.838Z,0
2018-01-08T00:49:54.506Z,0
2018-01-08T00:50:54.381Z,0
2018-01-08T00:51:54.140Z,0
2018-01-08T00:52:54.176Z,0
2018-01-08T00:53:54.170Z,0
2018-01-08T00:54:54.196Z,0
2018-01-08T00:55:53.951Z,0
2018-01-08T00:56:53.967Z,0
2018-01-08T00:57:54.234Z,0
2018-01-08T00:58:54.512Z,0
2018-01-08T00:59:54.284Z,0
2018-01-08T01:00:53.783Z,0
2018-01-08T01:01:54.306Z,0
2018-01-08T01:02:54.068Z,0
2018-01-08T01:03:54.592Z,0
2018-01-08T01:04:54.704Z,0
2018-01-08T01:05:54.363Z,0
2018-01-08T01:06:54.388Z,0
2018-01-08T01:07:54.150Z,0
2018-01-08T01:08:54.418Z,0
2018-01-08T01:09:54.752Z,0
2018-01-08T01:10:54.444Z,0
2018-01-08T01:11:54.462Z,0
2018-01-08T01:12:54.227Z,0
2018-01-08T01:13:54.495Z,0
2018-01-08T01:14:54.518Z,0
2018-01-08T01:15:54.773Z,0
2018-01-08T01:16:54.540Z,0
2018-01-08T01:17:54.362Z,0
2018-01-08T01:18:54.320Z,0
2018-01-08T01:19:54.904Z,0
2018-01-08T01:20:54.622Z,0
2018-01-08T01:21:54.382Z,0
2018-01-08T01:22:54.396Z,0
2018-01-08T01:23:54.671Z,0
2018-01-08T01:24:54.951Z,0
2018-01-08T01:25:54.448Z,0
2018-01-08T01:26:54.473Z,0
2018-01-08T01:27:54.759Z,0
2018-01-08T01:28:55.003Z,0
2018-01-08T01:29:54.264Z,0
2018-01-08T01:30:54.786Z,0
2018-01-08T01:31:55.051Z,0
2018-01-08T01:32:54.561Z,0
2018-01-08T01:33:54.332Z,0
2018-01-08T01:34:54.927Z,0
2018-01-08T01:35:55.122Z,0
2018-01-08T01:36:54.920Z,0
2018-01-08T01:37:54.906Z,0
2018-01-08T01:38:55.166Z,0
2018-01-08T01:39:54.439Z,0
2018-01-08T01:40:54.951Z,0
2018-01-08T01:41:55.225Z,0
2018-01-08T01:42:55.238Z,0
2018-01-08T01:43:55.000Z,0
2018-01-08T01:44:55.116Z,0
2018-01-08T01:45:54.284Z,0
2018-01-08T01:46:54.789Z,0
2018-01-08T01:47:55.306Z,0
2018-01-08T01:48:55.088Z,0
2018-01-08T01:49:55.101Z,0
2018-01-08T01:50:54.856Z,0
2018-01-08T01:51:55.127Z,0
2018-01-08T01:52:54.890Z,0
2018-01-08T01:53:55.424Z,0
2018-01-08T01:54:54.917Z,0
2018-01-08T01:55:55.190Z,0
2018-01-08T01:56:54.961Z,0
2018-01-08T01:57:55.480Z,0
2018-01-08T01:58:54.743Z,0
2018-01-08T01:59:55.316Z,0
2018-01-08T02:00:55.529Z,0
2018-01-08T02:01:55.297Z,0
2018-01-08T02:02:55.563Z,0
2018-01-08T02:03:55.334Z,0
2018-01-08T02:04:55.595Z,0
2018-01-08T02:05:55.619Z,0
2018-01-08T02:06:55.125Z,0
2018-01-08T02:07:55.399Z,0
2018-01-08T02:08:55.664Z,0
2018-01-08T02:09:55.172Z,0
2018-01-08T02:10:55.441Z,0
2018-01-08T02:11:55.716Z,0
2018-01-08T02:12:55.224Z,0
2018-01-08T02:13:55.513Z,0
2018-01-08T02:14:55.317Z,0
2018-01-08T02:15:55.276Z,0
2018-01-08T02:16:55.036Z,0
2018-01-08T02:17:55.301Z,0
2018-01-08T02:18:55.322Z,0
2018-01-08T02:19:55.327Z,0
2018-01-08T02:20:55.604Z,0
2018-01-08T02:21:55.633Z,0
2018-01-08T02:22:55.377Z,0
2018-01-08T02:23:55.403Z,0
2018-01-08T02:24:55.688Z,0
2018-01-08T02:25:55.950Z,0
2018-01-08T02:26:55.200Z,0
2018-01-08T02:27:55.976Z,0
2018-01-08T02:28:55.992Z,0
2018-01-08T02:29:55.556Z,0
2018-01-08T02:30:55.776Z,0
2018-01-08T02:31:55.811Z,0
2018-01-08T02:32:56.065Z,0
2018-01-08T02:33:56.085Z,0
2018-01-08T02:34:55.660Z,0
2018-01-08T02:35:55.622Z,0
2018-01-08T02:36:55.623Z,0
2018-01-08T02:37:55.914Z,0
2018-01-08T02:38:56.172Z,0
2018-01-08T02:39:56.181Z,0
2018-01-08T02:40:55.952Z,0
2018-01-08T02:41:56.213Z,0
2018-01-08T02:42:55.737Z,0
2018-01-08T02:43:55.738Z,0
2018-01-08T02:44:56.059Z,0
2018-01-08T02:45:56.296Z,0
2018-01-08T02:46:56.052Z,0
2018-01-08T02:47:56.052Z,0
2018-01-08T02:48:56.329Z,0
2018-01-08T02:49:56.340Z,0
2018-01-08T02:50:55.852Z,0
2018-01-08T02:51:56.121Z,0
2018-01-08T02:52:56.395Z,0
2018-01-08T02:53:56.406Z,0
2018-01-08T02:54:56.186Z,0
2018-01-08T02:55:56.467Z,0
2018-01-08T02:56:56.207Z,0
2018-01-08T02:57:56.485Z,0
2018-01-08T02:58:56.245Z,0
2018-01-08T02:59:56.557Z,0
2018-01-08T03:00:56.273Z,0
2018-01-08T03:01:56.538Z,0
2018-01-08T03:02:56.305Z,0
2018-01-08T03:03:56.576Z,0
2018-01-08T03:04:56.655Z,0
2018-01-08T03:05:56.351Z,0
2018-01-08T03:06:56.631Z,0
2018-01-08T03:07:56.414Z,0
2018-01-08T03:08:56.408Z,0
2018-01-08T03:09:56.216Z,0
2018-01-08T03:10:56.686Z,0
2018-01-08T03:11:56.456Z,0
2018-01-08T03:12:56.217Z,0
2018-01-08T03:13:56.484Z,0
2018-01-08T03:14:56.655Z,0
2018-01-08T03:15:56.520Z,0
2018-01-08T03:16:56.281Z,0
2018-01-08T03:17:56.818Z,0
2018-01-08T03:18:56.827Z,0
2018-01-08T03:19:56.330Z,0
2018-01-08T03:20:56.600Z,0
2018-01-08T03:21:56.618Z,0
2018-01-08T03:22:56.427Z,0
2018-01-08T03:23:56.395Z,0
2018-01-08T03:24:56.723Z,0
2018-01-08T03:25:56.683Z,0
2018-01-08T03:26:56.449Z,0
2018-01-08T03:27:56.720Z,0
2018-01-08T03:28:56.725Z,0
2018-01-08T03:29:56.497Z,0
2018-01-08T03:30:56.515Z,0
2018-01-08T03:31:56.791Z,0
2018-01-08T03:32:57.055Z,0
2018-01-08T03:33:56.568Z,0
2018-01-08T03:34:56.583Z,0
2018-01-08T03:35:56.857Z,0
2018-01-08T03:36:56.364Z,0
2018-01-08T03:37:56.623Z,0
2018-01-08T03:38:56.642Z,0
2018-01-08T03:39:56.974Z,0
2018-01-08T03:40:56.677Z,0
2018-01-08T03:41:56.953Z,0
2018-01-08T03:42:56.982Z,0
2018-01-08T03:43:56.981Z,0
2018-01-08T03:44:56.744Z,0
2018-01-08T03:45:57.018Z,0
2018-01-08T03:46:56.520Z,0
2018-01-08T03:47:57.052Z,0
2018-01-08T03:48:57.059Z,0
2018-01-08T03:49:57.333Z,0
2018-01-08T03:50:57.096Z,0
2018-01-08T03:51:57.361Z,0
2018-01-08T03:52:57.150Z,0
2018-01-08T03:53:56.639Z,0
2018-01-08T03:54:57.215Z,0
2018-01-08T03:55:57.173Z,0
2018-01-08T03:56:57.457Z,0
2018-01-08T03:57:57.473Z,0
2018-01-08T03:58:57.230Z,0
2018-01-08T03:59:57.245Z,0
2018-01-08T04:00:57.259Z,0
2018-01-08T04:01:57.019Z,0
2018-01-08T04:02:57.036Z,0
2018-01-08T04:03:57.559Z,0
2018-01-08T04:04:57.339Z,0
2018-01-08T04:05:57.341Z,0
2018-01-08T04:06:57.115Z,0
2018-01-08T04:07:57.381Z,0
2018-01-08T04:08:57.646Z,0
2018-01-08T04:09:57.453Z,0
2018-01-08T04:10:57.399Z,0
2018-01-08T04:11:57.425Z,0
2018-01-08T04:12:57.687Z,0
2018-01-08T04:13:57.475Z,0
2018-01-08T04:14:57.500Z,0
2018-01-08T04:15:57.750Z,0
2018-01-08T04:16:57.762Z,0
2018-01-08T04:17:57.786Z,0
2018-01-08T04:18:57.809Z,0
2018-01-08T04:19:57.577Z,0
2018-01-08T04:20:57.592Z,0
2018-01-08T04:21:57.607Z,0
2018-01-08T04:22:57.872Z,0
2018-01-08T04:23:57.385Z,0
2018-01-08T04:24:57.962Z,0
2018-01-08T04:25:58.008Z,0
2018-01-08T04:26:57.431Z,0
2018-01-08T04:27:57.696Z,0
2018-01-08T04:28:57.981Z,0
2018-01-08T04:29:57.735Z,0
2018-01-08T04:30:58.021Z,0
2018-01-08T04:31:57.769Z,0
2018-01-08T04:32:57.776Z,0
2018-01-08T04:33:57.802Z,0
2018-01-08T04:34:57.565Z,0
2018-01-08T04:35:57.581Z,0
2018-01-08T04:36:57.586Z,0
2018-01-08T04:37:58.169Z,0
2018-01-08T04:38:57.625Z,0
2018-01-08T04:39:57.698Z,0
2018-01-08T04:40:58.164Z,0
2018-01-08T04:41:57.676Z,0
2018-01-08T04:42:58.197Z,0
2018-01-08T04:43:57.704Z,0
2018-01-08T04:44:57.971Z,0
2018-01-08T04:45:58.245Z,0
2018-01-08T04:46:58.303Z,0
2018-01-08T04:47:57.528Z,0
2018-01-08T04:48:57.788Z,0
2018-01-08T04:49:57.837Z,0
2018-01-08T04:50:58.073Z,0
2018-01-08T04:51:57.836Z,0
2018-01-08T04:52:58.109Z,0
2018-01-08T04:53:58.379Z,0
2018-01-08T04:54:58.147Z,0
2018-01-08T04:55:58.156Z,0
2018-01-08T04:56:58.424Z,0
2018-01-08T04:57:58.203Z,0
2018-01-08T04:58:58.343Z,0
2018-01-08T04:59:58.222Z,0
2018-01-08T05:00:57.986Z,0
2018-01-08T05:01:58.015Z,0
2018-01-08T05:02:58.013Z,0
2018-01-08T05:03:58.535Z,0
2018-01-08T05:04:57.782Z,0
2018-01-08T05:05:58.555Z,0
2018-01-08T05:06:58.077Z,0
2018-01-08T05:07:58.347Z,0
2018-01-08T05:08:58.111Z,0
2018-01-08T05:09:58.390Z,0
2018-01-08T05:10:58.143Z,0
2018-01-08T05:11:58.682Z,0
2018-01-08T05:12:58.438Z,0
2018-01-08T05:13:58.753Z,0
2018-01-08T05:14:58.213Z,0
2018-01-08T05:15:58.732Z,0
2018-01-08T05:16:58.750Z,0
2018-01-08T05:17:58.262Z,0
2018-01-08T05:18:58.531Z,0
2018-01-08T05:19:58.303Z,0
2018-01-08T05:20:58.058Z,0
2018-01-08T05:21:58.584Z,0
2018-01-08T05:22:58.094Z,0
2018-01-08T05:23:58.970Z,0
2018-01-08T05:24:58.881Z,0
2018-01-08T05:25:58.419Z,0
2018-01-08T05:26:58.660Z,0
2018-01-08T05:27:58.173Z,0
2018-01-08T05:28:58.493Z,0
2018-01-08T05:29:58.981Z,0
2018-01-08T05:30:58.726Z,0
2018-01-08T05:31:58.991Z,0
2018-01-08T05:32:59.105Z,0
2018-01-08T05:33:58.772Z,0
2018-01-08T05:34:58.831Z,0
2018-01-08T05:35:58.802Z,0
2018-01-08T05:36:58.319Z,0
2018-01-08T05:37:59.084Z,0
2018-01-08T05:38:58.603Z,0
2018-01-08T05:39:58.872Z,0
2018-01-08T05:40:59.150Z,0
2018-01-08T05:41:58.409Z,0
2018-01-08T05:42:58.667Z,0
2018-01-08T05:43:58.479Z,0
2018-01-08T05:44:58.947Z,0
2018-01-08T05:45:58.714Z,0
2018-01-08T05:46:59.092Z,0
2018-01-08T05:47:58.735Z,0
2018-01-08T05:48:59.006Z,0
2018-01-08T05:49:58.769Z,0
2018-01-08T05:50:59.296Z,0
2018-01-08T05:51:58.813Z,0
2018-01-08T05:52:59.086Z,0
2018-01-08T05:53:58.852Z,0
2018-01-08T05:54:59.110Z,0
2018-01-08T05:55:58.888Z,0
2018-01-08T05:56:58.894Z,0
2018-01-08T05:57:59.161Z,0
2018-01-08T05:58:58.974Z,0
2018-01-08T05:59:58.940Z,0
2018-01-08T06:00:59.214Z,0
2018-01-08T06:01:59.499Z,0
2018-01-08T06:02:59.246Z,0
2018-01-08T06:03:59.271Z,0
2018-01-08T06:04:59.343Z,0
2018-01-08T06:05:59.551Z,0
2018-01-08T06:06:59.565Z,0
2018-01-08T06:07:59.070Z,0
2018-01-08T06:08:59.338Z,0
2018-01-08T06:09:59.100Z,0
2018-01-08T06:10:59.177Z,0
2018-01-08T06:11:59.140Z,0
2018-01-08T06:12:58.916Z,0
2018-01-08T06:13:59.725Z,0
2018-01-08T06:14:59.444Z,0
2018-01-08T06:15:59.204Z,0
2018-01-08T06:16:59.728Z,0
2018-01-08T06:17:59.734Z,0
2018-01-08T06:18:59.759Z,0
2018-01-08T06:19:59.511Z,0
2018-01-08T06:20:59.532Z,0
2018-01-08T06:21:59.554Z,0
2018-01-08T06:22:59.312Z,0
2018-01-08T06:23:59.851Z,0
2018-01-08T06:24:59.850Z,0
2018-01-08T06:25:59.363Z,0
2018-01-08T06:26:59.893Z,0
2018-01-08T06:27:59.647Z,0
2018-01-08T06:28:59.465Z,0
2018-01-08T06:29:59.434Z,0
2018-01-08T06:30:59.690Z,0
2018-01-08T06:31:59.466Z,0
2018-01-08T06:32:59.478Z,0
2018-01-08T06:33:59.748Z,0
2018-01-08T06:35:00.177Z,0
2018-01-08T06:35:59.581Z,0
2018-01-08T06:37:00.052Z,0
2018-01-08T06:37:59.812Z,0
2018-01-08T06:39:00.082Z,0
2018-01-08T06:40:00.100Z,0
2018-01-08T06:40:59.856Z,0
2018-01-08T06:41:59.870Z,0
2018-01-08T06:42:59.382Z,0
2018-01-08T06:44:00.165Z,0
2018-01-08T06:45:00.220Z,0
2018-01-08T06:45:59.952Z,0
2018-01-08T06:46:59.954Z,0
2018-01-08T06:47:59.971Z,0
2018-01-08T06:48:59.986Z,0
2018-01-08T06:50:00.010Z,0
2018-01-08T06:51:00.272Z,0
2018-01-08T06:52:00.284Z,0
2018-01-08T06:53:00.054Z,0
2018-01-08T06:53:59.820Z,0
2018-01-08T06:54:59.835Z,0
2018-01-08T06:56:00.112Z,0
2018-01-08T06:57:00.128Z,0
2018-01-08T06:58:00.398Z,0
2018-01-08T06:58:59.896Z,0
2018-01-08T07:00:00.211Z,0
2018-01-08T07:01:00.434Z,0
2018-01-08T07:02:00.188Z,0
2018-01-08T07:03:00.461Z,0
2018-01-08T07:04:00.247Z,0
2018-01-08T07:05:00.250Z,0
2018-01-08T07:06:00.361Z,0
2018-01-08T07:07:00.024Z,0
2018-01-08T07:08:00.556Z,0
2018-01-08T07:09:00.670Z,0
2018-01-08T07:10:00.319Z,0
2018-01-08T07:11:00.385Z,0
2018-01-08T07:12:00.364Z,0
2018-01-08T07:13:00.372Z,0
2018-01-08T07:14:00.640Z,0
2018-01-08T07:15:00.412Z,0
2018-01-08T07:16:00.219Z,0
2018-01-08T07:16:59.929Z,0
2018-01-08T07:18:00.729Z,0
2018-01-08T07:19:00.724Z,0
2018-01-08T07:20:00.740Z,0
2018-01-08T07:21:00.503Z,0
2018-01-08T07:22:00.267Z,0
2018-01-08T07:23:00.536Z,0
2018-01-08T07:24:00.555Z,0
2018-01-08T07:25:00.820Z,5
2018-01-08T07:26:00.836Z,5
2018-01-08T07:27:00.854Z,5
2018-01-08T07:28:00.864Z,5
2018-01-08T07:29:00.378Z,5
2018-01-08T07:30:00.646Z,5
2018-01-08T07:31:00.716Z,5
2018-01-08T07:32:00.437Z,5
2018-01-08T07:33:00.447Z,5
2018-01-08T07:34:00.464Z,5
2018-01-08T07:35:00.731Z,5
2018-01-08T07:36:00.488Z,5
2018-01-08T07:37:00.503Z,5
2018-01-08T07:38:00.774Z,5
2018-01-08T07:39:00.536Z,10
2018-01-08T07:40:01.079Z,10
2018-01-08T07:41:00.827Z,10
2018-01-08T07:42:00.594Z,10
2018-01-08T07:43:00.850Z,10
2018-01-08T07:44:00.868Z,10
2018-01-08T07:45:01.143Z,10
2018-01-08T07:46:00.955Z,10
2018-01-08T07:47:00.668Z,10
2018-01-08T07:48:00.433Z,10
2018-01-08T07:49:00.954Z,10
2018-01-08T07:50:01.227Z,10
2018-01-08T07:51:00.989Z,10
2018-01-08T07:52:01.261Z,10
2018-01-08T07:53:01.016Z,10
2018-01-08T07:54:01.036Z,10
2018-01-08T07:55:00.810Z,10
2018-01-08T07:56:00.561Z,10
2018-01-08T07:57:01.090Z,15
2018-01-08T07:58:01.344Z,15
2018-01-08T07:59:01.107Z,15
2018-01-08T08:00:00.872Z,15
2018-01-08T08:01:01.442Z,15
2018-01-08T08:02:01.159Z,15
2018-01-08T08:03:00.919Z,15
2018-01-08T08:04:00.946Z,15
2018-01-08T08:05:00.725Z,15
2018-01-08T08:06:01.491Z,15
2018-01-08T08:07:00.992Z,15
2018-01-08T08:08:01.555Z,15
2018-01-08T08:09:01.540Z,20
2018-01-08T08:10:01.303Z,20
2018-01-08T08:11:01.560Z,20
2018-01-08T08:12:01.573Z,20
2018-01-08T08:13:01.583Z,25
2018-01-08T08:14:01.091Z,25
2018-01-08T08:15:01.112Z,25
2018-01-08T08:16:01.697Z,30
2018-01-08T08:17:01.412Z,30
2018-01-08T08:18:01.420Z,30
2018-01-08T08:19:01.688Z,30
2018-01-08T08:20:01.699Z,35
2018-01-08T08:21:01.715Z,35
2018-01-08T08:22:01.230Z,35
2018-01-08T08:23:01.498Z,35
2018-01-08T08:24:01.520Z,35
2018-01-08T08:25:01.280Z,35
2018-01-08T08:26:01.296Z,35
2018-01-08T08:27:01.337Z,40
2018-01-08T08:28:01.834Z,40
2018-01-08T08:29:01.592Z,35
2018-01-08T08:30:01.878Z,40
2018-01-08T08:31:01.269Z,40
2018-01-08T08:32:01.652Z,40
2018-01-08T08:33:01.704Z,40
2018-01-08T08:34:01.420Z,40
2018-01-08T08:35:01.157Z,40
2018-01-08T08:36:01.689Z,40
2018-01-08T08:37:01.438Z,40
2018-01-08T08:38:01.956Z,45
2018-01-08T08:39:01.721Z,45
2018-01-08T08:40:01.518Z,45
2018-01-08T08:41:01.284Z,45
2018-01-08T08:42:02.067Z,45
2018-01-08T08:43:01.566Z,45
2018-01-08T08:44:01.577Z,45
2018-01-08T08:45:01.592Z,45
2018-01-08T08:46:01.613Z,45
2018-01-08T08:47:02.131Z,45
2018-01-08T08:48:02.895Z,45
2018-01-08T08:49:01.155Z,45
2018-01-08T08:50:02.190Z,50
2018-01-08T08:51:01.946Z,55
2018-01-08T08:52:02.216Z,55
2018-01-08T08:53:02.229Z,60
2018-01-08T08:54:02.004Z,55
2018-01-08T08:55:01.763Z,55
2018-01-08T08:56:02.022Z,55
2018-01-08T08:57:02.049Z,60
2018-01-08T08:58:01.805Z,60
2018-01-08T08:59:01.573Z,60
2018-01-08T09:00:02.093Z,60
2018-01-08T09:01:01.622Z,65
2018-01-08T09:02:02.123Z,65
2018-01-08T09:03:01.881Z,65
2018-01-08T09:04:02.155Z,70
2018-01-08T09:05:02.437Z,65
2018-01-08T09:06:01.432Z,70
2018-01-08T09:07:01.951Z,70
2018-01-08T09:08:03.557Z,65
2018-01-08T09:09:02.292Z,65
2018-01-08T09:10:02.004Z,70
2018-01-08T09:11:02.521Z,70
2018-01-08T09:12:02.048Z,65
2018-01-08T09:13:02.051Z,70
2018-01-08T09:14:02.580Z,70
2018-01-08T09:15:02.598Z,70
2018-01-08T09:16:02.356Z,70
2018-01-08T09:17:02.370Z,75
2018-01-08T09:18:02.410Z,70
2018-01-08T09:19:02.397Z,70
2018-01-08T09:20:02.679Z,70
2018-01-08T09:21:02.435Z,75
2018-01-08T09:22:02.198Z,80
2018-01-08T09:23:02.220Z,80
2018-01-08T09:24:02.276Z,75
2018-01-08T09:25:02.250Z,75
2018-01-08T09:26:02.517Z,75
2018-01-08T09:27:02.526Z,75
2018-01-08T09:28:02.802Z,80
2018-01-08T09:29:02.572Z,75
2018-01-08T09:30:02.076Z,75
2018-01-08T09:31:02.597Z,75
2018-01-08T09:32:02.620Z,75
2018-01-08T09:33:02.386Z,80
2018-01-08T09:34:02.492Z,80
2018-01-08T09:35:02.667Z,80
2018-01-08T09:36:02.427Z,75
2018-01-08T09:37:02.965Z,75
2018-01-08T09:38:03.015Z,75
2018-01-08T09:39:02.782Z,75
2018-01-08T09:40:02.754Z,75
2018-01-08T09:41:02.518Z,80
2018-01-08T09:42:03.036Z,90
2018-01-08T09:43:02.823Z,105
2018-01-08T09:44:03.087Z,100
2018-01-08T09:45:02.841Z,95
2018-01-08T09:46:02.850Z,100
2018-01-08T09:47:02.880Z,110
2018-01-08T09:48:02.392Z,120
2018-01-08T09:49:02.906Z,130
2018-01-08T09:50:02.913Z,135
2018-01-08T09:51:02.962Z,135
2018-01-08T09:52:03.203Z,145
2018-01-08T09:53:02.467Z,145
2018-01-08T09:54:03.286Z,140
2018-01-08T09:55:02.997Z,145
2018-01-08T09:56:03.276Z,150
2018-01-08T09:57:03.296Z,160
2018-01-08T09:58:03.049Z,180
2018-01-08T09:59:03.317Z,190
2018-01-08T10:00:03.344Z,200
2018-01-08T10:01:03.175Z,200
2018-01-08T10:02:03.370Z,195
2018-01-08T10:03:03.386Z,185
2018-01-08T10:04:03.204Z,190
2018-01-08T10:05:02.918Z,180
2018-01-08T10:06:03.185Z,180
2018-01-08T10:07:02.950Z,165
2018-01-08T10:08:03.477Z,145
2018-01-08T10:09:03.042Z,130
2018-01-08T10:10:03.516Z,120
2018-01-08T10:11:03.271Z,115
2018-01-08T10:12:03.295Z,125
2018-01-08T10:13:03.312Z,125
2018-01-08T10:14:02.819Z,130
2018-01-08T10:15:03.350Z,120
2018-01-08T10:16:03.369Z,125
2018-01-08T10:17:03.384Z,140
2018-01-08T10:18:03.656Z,130
2018-01-08T10:19:03.160Z,100
2018-01-08T10:20:03.427Z,85
2018-01-08T10:21:03.712Z,85
2018-01-08T10:22:03.205Z,80
2018-01-08T10:23:03.487Z,80
2018-01-08T10:24:03.302Z,70
2018-01-08T10:25:03.773Z,75
2018-01-08T10:26:03.534Z,85
2018-01-08T10:27:03.553Z,80
2018-01-08T10:28:03.323Z,75
2018-01-08T10:29:03.839Z,80
2018-01-08T10:30:03.629Z,80
2018-01-08T10:31:03.621Z,80
2018-01-08T10:32:03.887Z,85
2018-01-08T10:33:03.654Z,70
2018-01-08T10:34:03.673Z,70
2018-01-08T10:35:03.941Z,75
2018-01-08T10:36:03.958Z,85
2018-01-08T10:37:03.978Z,85
2018-01-08T10:38:03.737Z,85
2018-01-08T10:39:03.805Z,85
2018-01-08T10:40:03.271Z,80
2018-01-08T10:41:03.539Z,105
2018-01-08T10:42:03.552Z,125
2018-01-08T10:43:03.574Z,125
2018-01-08T10:44:03.339Z,125
2018-01-08T10:45:04.117Z,130
2018-01-08T10:46:04.125Z,135
2018-01-08T10:47:04.152Z,135
2018-01-08T10:48:04.160Z,140
2018-01-08T10:49:03.925Z,140
2018-01-08T10:50:03.695Z,140
2018-01-08T10:51:04.216Z,140
2018-01-08T10:52:04.229Z,135
2018-01-08T10:53:04.000Z,135
2018-01-08T10:54:04.011Z,140
2018-01-08T10:55:03.836Z,140
2018-01-08T10:56:03.542Z,135
2018-01-08T10:57:04.067Z,130
2018-01-08T10:58:04.085Z,130
2018-01-08T10:59:04.347Z,130
2018-01-08T11:00:03.863Z,130
2018-01-08T11:01:04.135Z,130
2018-01-08T11:02:04.151Z,130
2018-01-08T11:03:04.419Z,130
2018-01-08T11:04:04.438Z,125
2018-01-08T11:05:03.745Z,125
2018-01-08T11:06:04.224Z,130
2018-01-08T11:07:04.236Z,140
2018-01-08T11:08:03.998Z,145
2018-01-08T11:09:04.020Z,140
2018-01-08T11:10:04.342Z,140
2018-01-08T11:11:04.056Z,160
2018-01-08T11:12:04.336Z,170
2018-01-08T11:13:04.355Z,175
2018-01-08T11:14:04.629Z,170
2018-01-08T11:15:04.382Z,185
2018-01-08T11:16:04.392Z,180
2018-01-08T11:17:04.208Z,155
2018-01-08T11:18:04.684Z,145
2018-01-08T11:19:04.697Z,150
2018-01-08T11:20:04.457Z,145
2018-01-08T11:21:03.983Z,145
2018-01-08T11:22:04.763Z,165
2018-01-08T11:23:04.262Z,170
2018-01-08T11:24:04.278Z,185
2018-01-08T11:25:04.351Z,190
2018-01-08T11:26:04.828Z,190
2018-01-08T11:27:04.839Z,190
2018-01-08T11:28:04.666Z,170
2018-01-08T11:29:04.869Z,165
2018-01-08T11:30:04.731Z,155
2018-01-08T11:31:04.400Z,145
2018-01-08T11:32:04.674Z,145
2018-01-08T11:33:04.688Z,160
2018-01-08T11:34:04.957Z,170
2018-01-08T11:35:04.500Z,190
2018-01-08T11:36:04.490Z,180
2018-01-08T11:37:05.016Z,165
2018-01-08T11:38:04.781Z,190
2018-01-08T11:39:04.789Z,280
2018-01-08T11:40:04.860Z,225
2018-01-08T11:41:04.571Z,210
2018-01-08T11:42:04.836Z,195
2018-01-08T11:43:05.113Z,220
2018-01-08T11:44:04.372Z,215
2018-01-08T11:45:04.939Z,200
2018-01-08T11:46:04.924Z,200
2018-01-08T11:47:04.674Z,190
2018-01-08T11:48:05.200Z,195
2018-01-08T11:49:05.015Z,205
2018-01-08T11:50:04.499Z,190
2018-01-08T11:51:05.258Z,175
2018-01-08T11:52:04.772Z,160
2018-01-08T11:53:05.070Z,165
2018-01-08T11:54:04.821Z,175
2018-01-08T11:55:04.619Z,205
2018-01-08T11:56:05.091Z,225
2018-01-08T11:57:04.882Z,235
2018-01-08T11:58:05.130Z,215
2018-01-08T11:59:05.400Z,205
2018-01-08T12:00:05.170Z,215
2018-01-08T12:01:04.933Z,205
2018-01-08T12:02:04.698Z,205
2018-01-08T12:03:05.497Z,205
2018-01-08T12:04:05.253Z,180
2018-01-08T12:05:05.002Z,170
2018-01-08T12:06:05.027Z,165
2018-01-08T12:07:05.287Z,160
2018-01-08T12:08:04.807Z,155
2018-01-08T12:09:05.581Z,155
2018-01-08T12:10:05.747Z,150
2018-01-08T12:11:04.607Z,155
2018-01-08T12:12:05.642Z,140
2018-01-08T12:13:05.146Z,145
2018-01-08T12:14:05.415Z,140
2018-01-08T12:15:05.183Z,135
2018-01-08T12:16:05.218Z,135
2018-01-08T12:17:05.024Z,135
2018-01-08T12:18:05.525Z,140
2018-01-08T12:19:05.772Z,150
2018-01-08T12:20:05.299Z,135
2018-01-08T12:21:05.799Z,145
2018-01-08T12:22:05.557Z,150
2018-01-08T12:23:05.932Z,140
2018-01-08T12:24:05.391Z,125
2018-01-08T12:25:05.692Z,125
2018-01-08T12:26:05.626Z,130
2018-01-08T12:27:05.400Z,135
2018-01-08T12:28:05.917Z,135
2018-01-08T12:29:04.944Z,135
2018-01-08T12:30:05.968Z,150
2018-01-08T12:31:05.464Z,160
2018-01-08T12:32:05.977Z,195
2018-01-08T12:33:05.492Z,245
2018-01-08T12:34:05.765Z,220
2018-01-08T12:35:05.530Z,190
2018-01-08T12:36:05.546Z,185
2018-01-08T12:37:06.066Z,180
2018-01-08T12:38:05.833Z,195
2018-01-08T12:39:05.863Z,190
2018-01-08T12:40:05.430Z,170
2018-01-08T12:41:05.142Z,175
2018-01-08T12:42:06.168Z,640
2018-01-08T12:43:05.685Z,245
2018-01-08T12:44:05.998Z,175
2018-01-08T12:45:06.251Z,200
2018-01-08T12:46:05.987Z,185
2018-01-08T12:47:06.011Z,175
2018-01-08T12:48:05.789Z,195
2018-01-08T12:49:06.043Z,235
2018-01-08T12:50:05.555Z,250
2018-01-08T12:51:06.331Z,275
2018-01-08T12:52:06.100Z,280
2018-01-08T12:53:05.863Z,245
2018-01-08T12:54:05.628Z,210
2018-01-08T12:55:06.209Z,220
2018-01-08T12:56:06.426Z,225
2018-01-08T12:57:06.194Z,205
2018-01-08T12:58:06.525Z,195
2018-01-08T12:59:06.484Z,180
2018-01-08T13:00:06.496Z,210
2018-01-08T13:01:06.008Z,245
2018-01-08T13:02:06.026Z,260
2018-01-08T13:03:06.300Z,250
2018-01-08T13:04:06.315Z,230
2018-01-08T13:05:06.080Z,200
2018-01-08T13:06:06.100Z,160
2018-01-08T13:07:06.374Z,155
2018-01-08T13:08:06.396Z,155
2018-01-08T13:09:06.410Z,160
2018-01-08T13:10:06.730Z,165
2018-01-08T13:11:06.707Z,160
2018-01-08T13:12:06.461Z,190
2018-01-08T13:13:06.237Z,190
2018-01-08T13:14:06.754Z,170
2018-01-08T13:15:06.011Z,155
2018-01-08T13:16:06.793Z,165
2018-01-08T13:17:06.808Z,175
2018-01-08T13:18:06.584Z,190
2018-01-08T13:19:06.599Z,215
2018-01-08T13:20:06.623Z,195
2018-01-08T13:21:06.377Z,175
2018-01-08T13:22:06.902Z,170
2018-01-08T13:23:06.176Z,155
2018-01-08T13:24:06.435Z,155
2018-01-08T13:25:06.756Z,165
2018-01-08T13:26:06.215Z,190
2018-01-08T13:27:06.753Z,205
2018-01-08T13:28:06.760Z,205
2018-01-08T13:29:06.523Z,190
2018-01-08T13:30:07.049Z,180
2018-01-08T13:31:06.806Z,210
2018-01-08T13:32:07.096Z,195
2018-01-08T13:33:07.141Z,185
2018-01-08T13:34:07.123Z,190
2018-01-08T13:35:06.907Z,140
2018-01-08T13:36:06.903Z,145
2018-01-08T13:37:07.176Z,135
2018-01-08T13:38:06.691Z,135
2018-01-08T13:39:06.951Z,150
2018-01-08T13:40:06.512Z,180
2018-01-08T13:41:06.988Z,195
2018-01-08T13:42:06.763Z,190
2018-01-08T13:43:07.284Z,170
2018-01-08T13:44:07.295Z,155
2018-01-08T13:45:06.560Z,170
2018-01-08T13:46:07.073Z,130
2018-01-08T13:47:07.101Z,125
2018-01-08T13:48:06.889Z,120
2018-01-08T13:49:07.131Z,145
2018-01-08T13:50:07.401Z,115
2018-01-08T13:51:07.165Z,115
2018-01-08T13:52:06.929Z,110
2018-01-08T13:53:07.201Z,105
2018-01-08T13:54:07.474Z,95
2018-01-08T13:55:07.549Z,75
2018-01-08T13:56:07.261Z,65
2018-01-08T13:57:07.295Z,65
2018-01-08T13:58:07.031Z,65
2018-01-08T13:59:07.563Z,65
2018-01-08T14:00:07.647Z,65
2018-01-08T14:01:07.343Z,60
2018-01-08T14:02:07.369Z,55
2018-01-08T14:03:07.375Z,50
2018-01-08T14:04:07.398Z,45
2018-01-08T14:05:06.907Z,45
2018-01-08T14:06:07.682Z,40
2018-01-08T14:07:07.195Z,45
2018-01-08T14:08:07.213Z,50
2018-01-08T14:09:07.241Z,55
2018-01-08T14:10:07.504Z,50
2018-01-08T14:11:07.559Z,50
2018-01-08T14:12:07.543Z,50
2018-01-08T14:13:07.852Z,45
2018-01-08T14:14:07.575Z,40
2018-01-08T14:15:07.836Z,30
2018-01-08T14:16:07.605Z,25
2018-01-08T14:17:07.612Z,20
2018-01-08T14:18:07.986Z,20
2018-01-08T14:19:07.673Z,20
2018-01-08T14:20:07.424Z,20
2018-01-08T14:21:07.691Z,20
2018-01-08T14:22:07.710Z,20
2018-01-08T14:23:07.720Z,20
2018-01-08T14:39:54.444Z,15